sensor_id;sensor_type;location;lat;lon;timestamp;P1;durP1;ratioP1;P2;durP2;ratioP2
41426;SDS011;27171;51.812;19.514;2022-11-03T00:05:35;17.08;;;8.77;;
41426;SDS011;27171;51.812;19.514;2022-11-03T00:11:39;16.70;;;8.93;;
41426;SDS011;27171;51.812;19.514;2022-11-03T00:14:41;14.10;;;8.80;;
41426;SDS011;27171;51.812;19.514;2022-11-03T00:20:53;14.15;;;9.43;;
41426;SDS011;27171;51.812;19.514;2022-11-03T00:24:01;19.70;;;9.57;;
41426;SDS011;27171;51.812;19.514;2022-11-03T00:27:02;12.95;;;8.75;;
41426;SDS011;27171;51.812;19.514;2022-11-03T00:30:04;13.65;;;9.27;;
41426;SDS011;27171;51.812;19.514;2022-11-03T00:33:05;14.82;;;8.75;;
41426;SDS011;27171;51.812;19.514;2022-11-03T00:36:06;11.98;;;8.63;;
41426;SDS011;27171;51.812;19.514;2022-11-03T00:39:10;12.38;;;7.65;;
41426;SDS011;27171;51.812;19.514;2022-11-03T00:42:12;14.07;;;8.50;;
41426;SDS011;27171;51.812;19.514;2022-11-03T00:45:13;14.07;;;8.05;;
41426;SDS011;27171;51.812;19.514;2022-11-03T00:54:17;10.32;;;6.85;;
41426;SDS011;27171;51.812;19.514;2022-11-03T01:00:19;12.88;;;9.02;;
41426;SDS011;27171;51.812;19.514;2022-11-03T01:03:21;13.07;;;9.07;;
41426;SDS011;27171;51.812;19.514;2022-11-03T01:09:29;17.98;;;11.98;;
41426;SDS011;27171;51.812;19.514;2022-11-03T01:12:34;16.80;;;12.82;;
41426;SDS011;27171;51.812;19.514;2022-11-03T01:15:35;18.60;;;13.57;;
41426;SDS011;27171;51.812;19.514;2022-11-03T01:21:37;22.15;;;13.50;;
41426;SDS011;27171;51.812;19.514;2022-11-03T01:27:40;20.90;;;11.75;;
41426;SDS011;27171;51.812;19.514;2022-11-03T01:30:41;19.73;;;12.85;;
41426;SDS011;27171;51.812;19.514;2022-11-03T01:36:43;17.90;;;11.32;;
41426;SDS011;27171;51.812;19.514;2022-11-03T01:39:45;21.27;;;12.50;;
41426;SDS011;27171;51.812;19.514;2022-11-03T01:45:50;14.82;;;10.70;;
41426;SDS011;27171;51.812;19.514;2022-11-03T01:49:00;20.50;;;12.55;;
41426;SDS011;27171;51.812;19.514;2022-11-03T01:52:10;15.30;;;10.43;;
41426;SDS011;27171;51.812;19.514;2022-11-03T01:55:27;14.13;;;10.13;;
41426;SDS011;27171;51.812;19.514;2022-11-03T01:58:33;14.50;;;10.15;;
41426;SDS011;27171;51.812;19.514;2022-11-03T02:01:37;13.60;;;10.15;;
41426;SDS011;27171;51.812;19.514;2022-11-03T02:04:38;15.63;;;10.13;;
41426;SDS011;27171;51.812;19.514;2022-11-03T02:10:49;17.13;;;12.50;;
41426;SDS011;27171;51.812;19.514;2022-11-03T02:13:51;21.75;;;15.13;;
41426;SDS011;27171;51.812;19.514;2022-11-03T02:19:56;22.45;;;14.82;;
41426;SDS011;27171;51.812;19.514;2022-11-03T02:26:23;18.73;;;13.45;;
41426;SDS011;27171;51.812;19.514;2022-11-03T02:29:24;16.50;;;11.85;;
41426;SDS011;27171;51.812;19.514;2022-11-03T02:32:34;20.55;;;13.63;;
41426;SDS011;27171;51.812;19.514;2022-11-03T02:35:53;16.33;;;11.10;;
41426;SDS011;27171;51.812;19.514;2022-11-03T02:42:18;15.70;;;12.20;;
41426;SDS011;27171;51.812;19.514;2022-11-03T02:45:21;22.00;;;11.93;;
41426;SDS011;27171;51.812;19.514;2022-11-03T02:48:24;16.00;;;10.55;;
41426;SDS011;27171;51.812;19.514;2022-11-03T02:51:25;15.02;;;9.93;;
41426;SDS011;27171;51.812;19.514;2022-11-03T03:01:58;15.05;;;9.00;;
41426;SDS011;27171;51.812;19.514;2022-11-03T03:04:47;14.95;;;9.23;;
41426;SDS011;27171;51.812;19.514;2022-11-03T03:07:53;12.75;;;9.02;;
41426;SDS011;27171;51.812;19.514;2022-11-03T03:11:03;13.00;;;8.25;;
41426;SDS011;27171;51.812;19.514;2022-11-03T03:20:30;14.38;;;10.23;;
41426;SDS011;27171;51.812;19.514;2022-11-03T03:23:46;17.67;;;10.75;;
41426;SDS011;27171;51.812;19.514;2022-11-03T03:26:57;14.02;;;11.23;;
41426;SDS011;27171;51.812;19.514;2022-11-03T03:30:04;16.67;;;10.70;;
41426;SDS011;27171;51.812;19.514;2022-11-03T03:33:07;14.77;;;9.27;;
41426;SDS011;27171;51.812;19.514;2022-11-03T03:36:10;18.02;;;11.45;;
41426;SDS011;27171;51.812;19.514;2022-11-03T03:39:14;17.27;;;11.13;;
41426;SDS011;27171;51.812;19.514;2022-11-03T03:42:19;14.43;;;9.55;;
41426;SDS011;27171;51.812;19.514;2022-11-03T03:45:21;13.88;;;10.70;;
41426;SDS011;27171;51.812;19.514;2022-11-03T03:48:25;18.15;;;11.00;;
41426;SDS011;27171;51.812;19.514;2022-11-03T03:51:26;14.90;;;10.77;;
41426;SDS011;27171;51.812;19.514;2022-11-03T03:54:29;16.00;;;11.05;;
41426;SDS011;27171;51.812;19.514;2022-11-03T03:57:30;15.98;;;10.85;;
41426;SDS011;27171;51.812;19.514;2022-11-03T04:06:33;14.60;;;9.02;;
41426;SDS011;27171;51.812;19.514;2022-11-03T04:12:35;13.50;;;8.88;;
41426;SDS011;27171;51.812;19.514;2022-11-03T04:15:39;20.70;;;10.52;;
41426;SDS011;27171;51.812;19.514;2022-11-03T04:21:41;15.43;;;10.05;;
41426;SDS011;27171;51.812;19.514;2022-11-03T04:24:49;15.50;;;10.65;;
41426;SDS011;27171;51.812;19.514;2022-11-03T04:27:51;13.98;;;10.40;;
41426;SDS011;27171;51.812;19.514;2022-11-03T04:33:57;14.63;;;10.32;;
41426;SDS011;27171;51.812;19.514;2022-11-03T04:36:59;15.27;;;10.98;;
41426;SDS011;27171;51.812;19.514;2022-11-03T04:40:01;12.43;;;9.82;;
41426;SDS011;27171;51.812;19.514;2022-11-03T04:43:10;20.50;;;12.77;;
41426;SDS011;27171;51.812;19.514;2022-11-03T04:46:19;26.58;;;13.73;;
41426;SDS011;27171;51.812;19.514;2022-11-03T04:49:24;22.60;;;14.50;;
41426;SDS011;27171;51.812;19.514;2022-11-03T04:55:26;20.40;;;12.52;;
41426;SDS011;27171;51.812;19.514;2022-11-03T04:58:31;19.48;;;12.20;;
41426;SDS011;27171;51.812;19.514;2022-11-03T05:01:35;17.88;;;12.43;;
41426;SDS011;27171;51.812;19.514;2022-11-03T05:07:37;14.73;;;10.25;;
41426;SDS011;27171;51.812;19.514;2022-11-03T05:16:40;16.60;;;10.32;;
41426;SDS011;27171;51.812;19.514;2022-11-03T05:19:41;16.17;;;10.93;;
41426;SDS011;27171;51.812;19.514;2022-11-03T05:22:43;16.65;;;11.32;;
41426;SDS011;27171;51.812;19.514;2022-11-03T05:25:44;19.27;;;12.63;;
41426;SDS011;27171;51.812;19.514;2022-11-03T05:28:49;17.30;;;12.38;;
41426;SDS011;27171;51.812;19.514;2022-11-03T05:31:53;19.02;;;13.45;;
41426;SDS011;27171;51.812;19.514;2022-11-03T05:34:56;19.15;;;13.60;;
41426;SDS011;27171;51.812;19.514;2022-11-03T05:37:57;17.50;;;12.52;;
41426;SDS011;27171;51.812;19.514;2022-11-03T05:44:00;20.20;;;13.15;;
41426;SDS011;27171;51.812;19.514;2022-11-03T05:47:17;19.27;;;11.65;;
41426;SDS011;27171;51.812;19.514;2022-11-03T05:50:26;15.90;;;11.45;;
41426;SDS011;27171;51.812;19.514;2022-11-03T05:53:36;19.02;;;12.52;;
41426;SDS011;27171;51.812;19.514;2022-11-03T05:56:40;17.92;;;11.05;;
41426;SDS011;27171;51.812;19.514;2022-11-03T06:02:43;17.17;;;12.02;;
41426;SDS011;27171;51.812;19.514;2022-11-03T06:05:45;18.10;;;12.68;;
41426;SDS011;27171;51.812;19.514;2022-11-03T06:08:46;15.80;;;12.23;;
41426;SDS011;27171;51.812;19.514;2022-11-03T06:11:48;15.32;;;10.88;;
41426;SDS011;27171;51.812;19.514;2022-11-03T06:14:51;15.27;;;10.90;;
41426;SDS011;27171;51.812;19.514;2022-11-03T06:17:52;15.68;;;10.82;;
41426;SDS011;27171;51.812;19.514;2022-11-03T06:20:55;14.23;;;10.40;;
41426;SDS011;27171;51.812;19.514;2022-11-03T06:23:59;13.63;;;10.48;;
41426;SDS011;27171;51.812;19.514;2022-11-03T06:30:02;15.15;;;10.38;;
41426;SDS011;27171;51.812;19.514;2022-11-03T06:33:27;15.02;;;10.35;;
41426;SDS011;27171;51.812;19.514;2022-11-03T06:36:34;14.02;;;10.63;;
41426;SDS011;27171;51.812;19.514;2022-11-03T06:39:36;17.02;;;11.48;;
41426;SDS011;27171;51.812;19.514;2022-11-03T06:42:37;13.15;;;10.52;;
41426;SDS011;27171;51.812;19.514;2022-11-03T06:48:46;14.35;;;11.32;;
41426;SDS011;27171;51.812;19.514;2022-11-03T06:51:47;14.63;;;9.52;;
41426;SDS011;27171;51.812;19.514;2022-11-03T06:57:56;17.80;;;11.40;;
41426;SDS011;27171;51.812;19.514;2022-11-03T07:01:00;22.13;;;13.02;;
41426;SDS011;27171;51.812;19.514;2022-11-03T07:04:17;25.52;;;13.63;;
41426;SDS011;27171;51.812;19.514;2022-11-03T07:07:21;18.50;;;13.15;;
41426;SDS011;27171;51.812;19.514;2022-11-03T07:10:30;18.08;;;13.52;;
41426;SDS011;27171;51.812;19.514;2022-11-03T07:13:33;17.27;;;11.88;;
41426;SDS011;27171;51.812;19.514;2022-11-03T07:16:44;20.80;;;13.73;;
41426;SDS011;27171;51.812;19.514;2022-11-03T07:19:47;24.30;;;15.02;;
41426;SDS011;27171;51.812;19.514;2022-11-03T07:25:51;23.20;;;14.77;;
41426;SDS011;27171;51.812;19.514;2022-11-03T07:28:53;18.17;;;14.25;;
41426;SDS011;27171;51.812;19.514;2022-11-03T07:34:59;15.25;;;11.35;;
41426;SDS011;27171;51.812;19.514;2022-11-03T07:38:30;21.85;;;12.60;;
41426;SDS011;27171;51.812;19.514;2022-11-03T07:41:32;23.15;;;15.07;;
41426;SDS011;27171;51.812;19.514;2022-11-03T07:47:34;21.05;;;14.20;;
41426;SDS011;27171;51.812;19.514;2022-11-03T07:50:36;18.77;;;15.10;;
41426;SDS011;27171;51.812;19.514;2022-11-03T07:59:57;21.40;;;15.50;;
41426;SDS011;27171;51.812;19.514;2022-11-03T08:03:24;18.88;;;14.52;;
41426;SDS011;27171;51.812;19.514;2022-11-03T08:06:34;22.25;;;14.82;;
41426;SDS011;27171;51.812;19.514;2022-11-03T08:12:36;16.90;;;12.95;;
41426;SDS011;27171;51.812;19.514;2022-11-03T08:15:37;20.23;;;12.80;;
41426;SDS011;27171;51.812;19.514;2022-11-03T08:21:39;17.33;;;12.43;;
41426;SDS011;27171;51.812;19.514;2022-11-03T08:27:41;15.82;;;11.38;;
41426;SDS011;27171;51.812;19.514;2022-11-03T08:33:43;19.25;;;11.02;;
41426;SDS011;27171;51.812;19.514;2022-11-03T08:39:45;15.02;;;9.05;;
41426;SDS011;27171;51.812;19.514;2022-11-03T08:42:46;21.52;;;10.88;;
41426;SDS011;27171;51.812;19.514;2022-11-03T08:45:47;16.42;;;10.93;;
41426;SDS011;27171;51.812;19.514;2022-11-03T08:51:49;12.57;;;8.20;;
41426;SDS011;27171;51.812;19.514;2022-11-03T08:54:50;14.45;;;7.82;;
41426;SDS011;27171;51.812;19.514;2022-11-03T08:57:51;10.05;;;7.15;;
41426;SDS011;27171;51.812;19.514;2022-11-03T09:03:56;11.05;;;5.45;;
41426;SDS011;27171;51.812;19.514;2022-11-03T09:06:57;13.00;;;6.60;;
41426;SDS011;27171;51.812;19.514;2022-11-03T09:09:58;13.70;;;6.03;;
41426;SDS011;27171;51.812;19.514;2022-11-03T09:12:59;10.60;;;6.70;;
41426;SDS011;27171;51.812;19.514;2022-11-03T09:16:01;9.85;;;6.25;;
41426;SDS011;27171;51.812;19.514;2022-11-03T09:22:02;9.63;;;4.78;;
41426;SDS011;27171;51.812;19.514;2022-11-03T09:25:04;8.60;;;4.07;;
41426;SDS011;27171;51.812;19.514;2022-11-03T09:28:05;10.05;;;4.75;;
41426;SDS011;27171;51.812;19.514;2022-11-03T09:34:07;11.18;;;4.53;;
41426;SDS011;27171;51.812;19.514;2022-11-03T09:37:08;10.80;;;4.97;;
41426;SDS011;27171;51.812;19.514;2022-11-03T09:40:10;11.68;;;4.55;;
41426;SDS011;27171;51.812;19.514;2022-11-03T09:43:14;9.50;;;4.55;;
41426;SDS011;27171;51.812;19.514;2022-11-03T09:46:15;7.93;;;3.70;;
41426;SDS011;27171;51.812;19.514;2022-11-03T09:49:17;10.32;;;4.22;;
41426;SDS011;27171;51.812;19.514;2022-11-03T09:52:21;7.53;;;3.72;;
41426;SDS011;27171;51.812;19.514;2022-11-03T09:55:23;12.45;;;4.38;;
41426;SDS011;27171;51.812;19.514;2022-11-03T09:58:25;7.20;;;3.47;;
41426;SDS011;27171;51.812;19.514;2022-11-03T10:01:27;7.30;;;3.33;;
41426;SDS011;27171;51.812;19.514;2022-11-03T10:04:30;7.00;;;3.10;;
41426;SDS011;27171;51.812;19.514;2022-11-03T10:07:31;7.32;;;3.63;;
41426;SDS011;27171;51.812;19.514;2022-11-03T10:10:32;9.27;;;3.22;;
41426;SDS011;27171;51.812;19.514;2022-11-03T10:13:45;6.78;;;2.88;;
41426;SDS011;27171;51.812;19.514;2022-11-03T10:16:57;7.65;;;3.85;;
41426;SDS011;27171;51.812;19.514;2022-11-03T10:19:59;5.30;;;2.33;;
41426;SDS011;27171;51.812;19.514;2022-11-03T10:23:02;6.32;;;1.98;;
41426;SDS011;27171;51.812;19.514;2022-11-03T10:26:11;7.85;;;3.00;;
41426;SDS011;27171;51.812;19.514;2022-11-03T10:29:15;7.85;;;3.10;;
41426;SDS011;27171;51.812;19.514;2022-11-03T10:32:28;4.28;;;1.55;;
41426;SDS011;27171;51.812;19.514;2022-11-03T10:35:31;5.18;;;1.98;;
41426;SDS011;27171;51.812;19.514;2022-11-03T10:38:33;5.93;;;1.50;;
41426;SDS011;27171;51.812;19.514;2022-11-03T10:41:35;7.72;;;1.70;;
41426;SDS011;27171;51.812;19.514;2022-11-03T10:44:36;6.28;;;1.98;;
41426;SDS011;27171;51.812;19.514;2022-11-03T10:50:26;7.55;;;1.60;;
41426;SDS011;27171;51.812;19.514;2022-11-03T10:53:27;7.88;;;2.38;;
41426;SDS011;27171;51.812;19.514;2022-11-03T10:56:28;4.72;;;1.80;;
41426;SDS011;27171;51.812;19.514;2022-11-03T10:59:31;7.82;;;2.30;;
41426;SDS011;27171;51.812;19.514;2022-11-03T11:02:35;4.70;;;1.65;;
41426;SDS011;27171;51.812;19.514;2022-11-03T11:05:36;6.28;;;2.03;;
41426;SDS011;27171;51.812;19.514;2022-11-03T11:08:44;8.77;;;1.80;;
41426;SDS011;27171;51.812;19.514;2022-11-03T11:15:49;3.70;;;1.23;;
41426;SDS011;27171;51.812;19.514;2022-11-03T11:30:55;3.92;;;1.00;;
41426;SDS011;27171;51.812;19.514;2022-11-03T11:43:26;3.25;;;1.13;;
41426;SDS011;27171;51.812;19.514;2022-11-03T11:49:41;5.78;;;1.10;;
41426;SDS011;27171;51.812;19.514;2022-11-03T11:56:12;7.22;;;1.30;;
41426;SDS011;27171;51.812;19.514;2022-11-03T11:59:15;3.85;;;1.20;;
41426;SDS011;27171;51.812;19.514;2022-11-03T12:02:22;5.32;;;1.17;;
41426;SDS011;27171;51.812;19.514;2022-11-03T12:05:25;5.93;;;1.50;;
41426;SDS011;27171;51.812;19.514;2022-11-03T12:08:28;5.53;;;1.20;;
41426;SDS011;27171;51.812;19.514;2022-11-03T12:11:41;4.35;;;1.20;;
41426;SDS011;27171;51.812;19.514;2022-11-03T12:14:47;2.85;;;1.08;;
41426;SDS011;27171;51.812;19.514;2022-11-03T12:17:48;6.28;;;1.80;;
41426;SDS011;27171;51.812;19.514;2022-11-03T12:20:49;6.70;;;1.55;;
41426;SDS011;27171;51.812;19.514;2022-11-03T12:23:50;5.53;;;1.17;;
41426;SDS011;27171;51.812;19.514;2022-11-03T12:26:51;3.55;;;1.17;;
41426;SDS011;27171;51.812;19.514;2022-11-03T12:29:53;5.18;;;1.40;;
41426;SDS011;27171;51.812;19.514;2022-11-03T12:32:58;6.60;;;1.10;;
41426;SDS011;27171;51.812;19.514;2022-11-03T12:35:59;5.80;;;1.45;;
41426;SDS011;27171;51.812;19.514;2022-11-03T12:39:00;6.20;;;1.23;;
41426;SDS011;27171;51.812;19.514;2022-11-03T12:42:01;6.03;;;1.08;;
41426;SDS011;27171;51.812;19.514;2022-11-03T12:45:03;3.40;;;1.40;;
41426;SDS011;27171;51.812;19.514;2022-11-03T12:48:06;7.20;;;1.92;;
41426;SDS011;27171;51.812;19.514;2022-11-03T12:51:07;7.80;;;2.30;;
41426;SDS011;27171;51.812;19.514;2022-11-03T12:54:08;3.97;;;1.55;;
41426;SDS011;27171;51.812;19.514;2022-11-03T12:57:09;4.72;;;1.13;;
41426;SDS011;27171;51.812;19.514;2022-11-03T13:00:11;4.20;;;1.13;;
41426;SDS011;27171;51.812;19.514;2022-11-03T13:03:12;7.07;;;1.48;;
41426;SDS011;27171;51.812;19.514;2022-11-03T13:06:13;5.32;;;1.88;;
41426;SDS011;27171;51.812;19.514;2022-11-03T13:09:14;4.53;;;1.35;;
41426;SDS011;27171;51.812;19.514;2022-11-03T13:12:15;3.95;;;1.55;;
41426;SDS011;27171;51.812;19.514;2022-11-03T13:15:23;4.57;;;1.73;;
41426;SDS011;27171;51.812;19.514;2022-11-03T13:18:24;3.83;;;1.45;;
41426;SDS011;27171;51.812;19.514;2022-11-03T13:21:26;6.65;;;1.65;;
41426;SDS011;27171;51.812;19.514;2022-11-03T13:24:27;5.80;;;1.30;;
41426;SDS011;27171;51.812;19.514;2022-11-03T13:27:28;5.90;;;1.77;;
41426;SDS011;27171;51.812;19.514;2022-11-03T13:30:29;3.90;;;1.30;;
41426;SDS011;27171;51.812;19.514;2022-11-03T13:33:30;5.78;;;1.20;;
41426;SDS011;27171;51.812;19.514;2022-11-03T13:36:31;4.95;;;1.27;;
41426;SDS011;27171;51.812;19.514;2022-11-03T13:39:32;4.63;;;1.55;;
41426;SDS011;27171;51.812;19.514;2022-11-03T13:42:33;5.30;;;1.50;;
41426;SDS011;27171;51.812;19.514;2022-11-03T13:45:35;3.33;;;1.40;;
41426;SDS011;27171;51.812;19.514;2022-11-03T13:48:36;4.93;;;1.33;;
41426;SDS011;27171;51.812;19.514;2022-11-03T13:51:37;3.35;;;1.17;;
41426;SDS011;27171;51.812;19.514;2022-11-03T13:54:38;3.90;;;1.48;;
41426;SDS011;27171;51.812;19.514;2022-11-03T13:57:39;4.47;;;1.63;;
41426;SDS011;27171;51.812;19.514;2022-11-03T14:00:40;6.05;;;2.38;;
41426;SDS011;27171;51.812;19.514;2022-11-03T14:03:41;7.07;;;2.53;;
41426;SDS011;27171;51.812;19.514;2022-11-03T14:06:42;5.72;;;2.60;;
41426;SDS011;27171;51.812;19.514;2022-11-03T14:09:43;4.72;;;2.67;;
41426;SDS011;27171;51.812;19.514;2022-11-03T14:12:44;4.47;;;1.92;;
41426;SDS011;27171;51.812;19.514;2022-11-03T14:15:45;6.90;;;2.65;;
41426;SDS011;27171;51.812;19.514;2022-11-03T14:18:46;10.23;;;3.40;;
41426;SDS011;27171;51.812;19.514;2022-11-03T14:21:47;7.35;;;3.15;;
41426;SDS011;27171;51.812;19.514;2022-11-03T14:24:48;10.50;;;4.70;;
41426;SDS011;27171;51.812;19.514;2022-11-03T14:27:50;6.22;;;3.30;;
41426;SDS011;27171;51.812;19.514;2022-11-03T14:30:51;11.95;;;4.57;;
41426;SDS011;27171;51.812;19.514;2022-11-03T14:33:52;8.88;;;4.43;;
41426;SDS011;27171;51.812;19.514;2022-11-03T14:36:53;8.10;;;4.00;;
41426;SDS011;27171;51.812;19.514;2022-11-03T14:39:54;9.55;;;3.90;;
41426;SDS011;27171;51.812;19.514;2022-11-03T14:45:56;8.70;;;3.95;;
41426;SDS011;27171;51.812;19.514;2022-11-03T14:48:57;14.38;;;5.70;;
41426;SDS011;27171;51.812;19.514;2022-11-03T14:51:59;6.88;;;2.65;;
41426;SDS011;27171;51.812;19.514;2022-11-03T14:55:01;6.07;;;2.72;;
41426;SDS011;27171;51.812;19.514;2022-11-03T14:58:02;7.60;;;2.28;;
41426;SDS011;27171;51.812;19.514;2022-11-03T15:01:03;4.00;;;1.67;;
41426;SDS011;27171;51.812;19.514;2022-11-03T15:04:04;8.40;;;3.03;;
41426;SDS011;27171;51.812;19.514;2022-11-03T15:07:05;7.15;;;2.60;;
41426;SDS011;27171;51.812;19.514;2022-11-03T15:13:08;9.23;;;3.47;;
41426;SDS011;27171;51.812;19.514;2022-11-03T15:16:10;12.40;;;4.18;;
41426;SDS011;27171;51.812;19.514;2022-11-03T15:19:11;8.52;;;3.90;;
41426;SDS011;27171;51.812;19.514;2022-11-03T15:22:12;10.45;;;5.35;;
41426;SDS011;27171;51.812;19.514;2022-11-03T15:28:14;10.73;;;6.45;;
41426;SDS011;27171;51.812;19.514;2022-11-03T15:31:15;8.65;;;5.57;;
41426;SDS011;27171;51.812;19.514;2022-11-03T15:37:17;11.20;;;3.67;;
41426;SDS011;27171;51.812;19.514;2022-11-03T15:43:19;11.85;;;4.90;;
41426;SDS011;27171;51.812;19.514;2022-11-03T15:46:20;9.02;;;5.10;;
41426;SDS011;27171;51.812;19.514;2022-11-03T15:49:21;13.93;;;5.03;;
41426;SDS011;27171;51.812;19.514;2022-11-03T15:52:22;10.13;;;5.07;;
41426;SDS011;27171;51.812;19.514;2022-11-03T15:55:23;9.80;;;5.07;;
41426;SDS011;27171;51.812;19.514;2022-11-03T15:58:25;14.00;;;5.28;;
41426;SDS011;27171;51.812;19.514;2022-11-03T16:04:26;8.32;;;4.22;;
41426;SDS011;27171;51.812;19.514;2022-11-03T16:07:28;7.40;;;4.03;;
41426;SDS011;27171;51.812;19.514;2022-11-03T16:10:29;7.43;;;4.28;;
41426;SDS011;27171;51.812;19.514;2022-11-03T16:13:31;9.48;;;5.15;;
41426;SDS011;27171;51.812;19.514;2022-11-03T16:16:32;10.65;;;6.20;;
41426;SDS011;27171;51.812;19.514;2022-11-03T16:19:33;13.05;;;6.72;;
41426;SDS011;27171;51.812;19.514;2022-11-03T16:22:34;12.68;;;7.10;;
41426;SDS011;27171;51.812;19.514;2022-11-03T16:25:35;10.43;;;5.45;;
41426;SDS011;27171;51.812;19.514;2022-11-03T16:28:37;11.10;;;5.72;;
41426;SDS011;27171;51.812;19.514;2022-11-03T16:31:39;11.60;;;6.57;;
41426;SDS011;27171;51.812;19.514;2022-11-03T16:34:41;11.95;;;6.18;;
41426;SDS011;27171;51.812;19.514;2022-11-03T16:37:43;10.23;;;6.15;;
41426;SDS011;27171;51.812;19.514;2022-11-03T16:40:44;10.02;;;4.68;;
41426;SDS011;27171;51.812;19.514;2022-11-03T16:43:46;13.57;;;5.53;;
41426;SDS011;27171;51.812;19.514;2022-11-03T16:46:48;12.10;;;5.50;;
41426;SDS011;27171;51.812;19.514;2022-11-03T16:49:50;11.57;;;5.95;;
41426;SDS011;27171;51.812;19.514;2022-11-03T16:52:52;10.50;;;6.30;;
41426;SDS011;27171;51.812;19.514;2022-11-03T16:55:54;10.98;;;5.90;;
41426;SDS011;27171;51.812;19.514;2022-11-03T16:58:56;13.45;;;6.53;;
41426;SDS011;27171;51.812;19.514;2022-11-03T17:04:58;11.45;;;6.18;;
41426;SDS011;27171;51.812;19.514;2022-11-03T17:07:59;11.15;;;6.78;;
41426;SDS011;27171;51.812;19.514;2022-11-03T17:11:01;12.23;;;7.10;;
41426;SDS011;27171;51.812;19.514;2022-11-03T17:14:06;12.73;;;7.43;;
41426;SDS011;27171;51.812;19.514;2022-11-03T17:17:08;12.80;;;6.85;;
41426;SDS011;27171;51.812;19.514;2022-11-03T17:20:09;11.93;;;7.45;;
41426;SDS011;27171;51.812;19.514;2022-11-03T17:23:11;12.75;;;6.55;;
41426;SDS011;27171;51.812;19.514;2022-11-03T17:29:14;13.90;;;6.47;;
41426;SDS011;27171;51.812;19.514;2022-11-03T17:32:28;14.20;;;7.57;;
41426;SDS011;27171;51.812;19.514;2022-11-03T17:38:39;14.18;;;7.85;;
41426;SDS011;27171;51.812;19.514;2022-11-03T17:41:41;15.77;;;7.63;;
41426;SDS011;27171;51.812;19.514;2022-11-03T17:44:45;12.48;;;7.65;;
41426;SDS011;27171;51.812;19.514;2022-11-03T17:47:48;14.07;;;7.53;;
41426;SDS011;27171;51.812;19.514;2022-11-03T17:50:50;13.00;;;7.47;;
41426;SDS011;27171;51.812;19.514;2022-11-03T17:53:54;12.90;;;8.02;;
41426;SDS011;27171;51.812;19.514;2022-11-03T17:59:57;12.25;;;7.38;;
41426;SDS011;27171;51.812;19.514;2022-11-03T18:02:59;14.30;;;7.43;;
41426;SDS011;27171;51.812;19.514;2022-11-03T18:06:00;15.75;;;8.77;;
41426;SDS011;27171;51.812;19.514;2022-11-03T18:09:01;16.63;;;8.95;;
41426;SDS011;27171;51.812;19.514;2022-11-03T18:12:02;15.32;;;8.23;;
41426;SDS011;27171;51.812;19.514;2022-11-03T18:18:14;13.10;;;8.30;;
41426;SDS011;27171;51.812;19.514;2022-11-03T18:21:19;15.18;;;8.18;;
41426;SDS011;27171;51.812;19.514;2022-11-03T18:24:22;14.73;;;8.27;;
41426;SDS011;27171;51.812;19.514;2022-11-03T18:27:24;14.75;;;8.02;;
41426;SDS011;27171;51.812;19.514;2022-11-03T18:30:27;14.10;;;8.25;;
41426;SDS011;27171;51.812;19.514;2022-11-03T18:33:31;12.43;;;8.00;;
41426;SDS011;27171;51.812;19.514;2022-11-03T18:36:33;14.68;;;8.43;;
41426;SDS011;27171;51.812;19.514;2022-11-03T18:39:36;15.38;;;10.20;;
41426;SDS011;27171;51.812;19.514;2022-11-03T18:42:38;14.65;;;8.50;;
41426;SDS011;27171;51.812;19.514;2022-11-03T18:45:39;17.30;;;9.20;;
41426;SDS011;27171;51.812;19.514;2022-11-03T18:48:40;15.38;;;9.05;;
41426;SDS011;27171;51.812;19.514;2022-11-03T18:51:43;17.15;;;9.57;;
41426;SDS011;27171;51.812;19.514;2022-11-03T18:54:53;17.08;;;9.38;;
41426;SDS011;27171;51.812;19.514;2022-11-03T19:00:56;14.75;;;7.93;;
41426;SDS011;27171;51.812;19.514;2022-11-03T19:06:57;14.30;;;7.88;;
41426;SDS011;27171;51.812;19.514;2022-11-03T19:09:59;17.77;;;8.90;;
41426;SDS011;27171;51.812;19.514;2022-11-03T19:13:02;19.05;;;8.95;;
41426;SDS011;27171;51.812;19.514;2022-11-03T19:16:10;16.38;;;9.85;;
41426;SDS011;27171;51.812;19.514;2022-11-03T19:19:17;16.20;;;8.95;;
41426;SDS011;27171;51.812;19.514;2022-11-03T19:22:19;15.27;;;8.48;;
41426;SDS011;27171;51.812;19.514;2022-11-03T19:25:20;14.80;;;8.70;;
41426;SDS011;27171;51.812;19.514;2022-11-03T19:28:21;15.50;;;9.27;;
41426;SDS011;27171;51.812;19.514;2022-11-03T19:34:36;14.60;;;8.93;;
41426;SDS011;27171;51.812;19.514;2022-11-03T19:37:39;13.82;;;8.35;;
41426;SDS011;27171;51.812;19.514;2022-11-03T19:40:40;13.85;;;8.43;;
41426;SDS011;27171;51.812;19.514;2022-11-03T19:43:42;12.25;;;8.05;;
41426;SDS011;27171;51.812;19.514;2022-11-03T19:49:45;16.13;;;7.90;;
41426;SDS011;27171;51.812;19.514;2022-11-03T19:52:47;13.57;;;7.90;;
41426;SDS011;27171;51.812;19.514;2022-11-03T19:55:48;13.27;;;7.72;;
41426;SDS011;27171;51.812;19.514;2022-11-03T19:58:49;13.13;;;7.63;;
41426;SDS011;27171;51.812;19.514;2022-11-03T20:04:51;11.90;;;6.45;;
41426;SDS011;27171;51.812;19.514;2022-11-03T20:07:53;12.73;;;7.00;;
41426;SDS011;27171;51.812;19.514;2022-11-03T20:10:55;10.68;;;6.40;;
41426;SDS011;27171;51.812;19.514;2022-11-03T20:13:56;12.27;;;6.75;;
41426;SDS011;27171;51.812;19.514;2022-11-03T20:20:12;11.68;;;6.72;;
41426;SDS011;27171;51.812;19.514;2022-11-03T20:23:19;9.75;;;6.28;;
41426;SDS011;27171;51.812;19.514;2022-11-03T20:26:30;12.55;;;6.38;;
41426;SDS011;27171;51.812;19.514;2022-11-03T20:32:32;8.80;;;5.18;;
41426;SDS011;27171;51.812;19.514;2022-11-03T20:38:34;10.57;;;5.78;;
41426;SDS011;27171;51.812;19.514;2022-11-03T20:41:36;8.45;;;5.40;;
41426;SDS011;27171;51.812;19.514;2022-11-03T20:44:39;10.93;;;5.40;;
41426;SDS011;27171;51.812;19.514;2022-11-03T20:50:41;8.93;;;4.85;;
41426;SDS011;27171;51.812;19.514;2022-11-03T20:53:42;9.75;;;4.90;;
41426;SDS011;27171;51.812;19.514;2022-11-03T20:56:43;10.73;;;5.03;;
41426;SDS011;27171;51.812;19.514;2022-11-03T20:59:45;11.35;;;5.20;;
41426;SDS011;27171;51.812;19.514;2022-11-03T21:02:46;8.98;;;4.82;;
41426;SDS011;27171;51.812;19.514;2022-11-03T21:05:48;7.63;;;4.55;;
41426;SDS011;27171;51.812;19.514;2022-11-03T21:08:49;8.48;;;4.72;;
41426;SDS011;27171;51.812;19.514;2022-11-03T21:11:51;8.80;;;4.80;;
41426;SDS011;27171;51.812;19.514;2022-11-03T21:14:52;9.18;;;4.88;;
41426;SDS011;27171;51.812;19.514;2022-11-03T21:17:53;10.63;;;5.38;;
41426;SDS011;27171;51.812;19.514;2022-11-03T21:23:55;11.07;;;5.25;;
41426;SDS011;27171;51.812;19.514;2022-11-03T21:29:57;12.73;;;5.03;;
41426;SDS011;27171;51.812;19.514;2022-11-03T21:35:59;8.90;;;5.03;;
41426;SDS011;27171;51.812;19.514;2022-11-03T21:39:00;10.65;;;4.82;;
41426;SDS011;27171;51.812;19.514;2022-11-03T21:42:01;10.32;;;5.43;;
41426;SDS011;27171;51.812;19.514;2022-11-03T21:54:05;10.27;;;5.45;;
41426;SDS011;27171;51.812;19.514;2022-11-03T21:57:08;9.20;;;4.82;;
41426;SDS011;27171;51.812;19.514;2022-11-03T22:00:10;7.60;;;5.07;;
41426;SDS011;27171;51.812;19.514;2022-11-03T22:03:12;9.70;;;5.22;;
41426;SDS011;27171;51.812;19.514;2022-11-03T22:09:14;7.13;;;4.95;;
41426;SDS011;27171;51.812;19.514;2022-11-03T22:12:16;9.98;;;5.43;;